Terminal Aerodrome Forecast
Issued by NWS

Home | Current Version | Previous Version | Text Only | Print | Product List | Glossary On
Versions: 1 2 3 4 5 6 7 8 9 10 11 12 13
000
FTUS43 KICT 211700
TAFHUT
TAF
KHUT 211725Z 2118/2218 20018G24KT P6SM SKC
     FM220100 17012KT P6SM VCSH SCT050
     FM220500 17012KT P6SM SCT130=

USA.gov is the U.S. government's official web portal to all federal, state and local government web resources and services.